createdAt,value
2019-05-02T00:09:11.170Z,11.10
2019-05-02T00:29:23.716Z,12.50
2019-05-02T00:49:30.758Z,9.94
2019-05-02T01:09:37.189Z,8.99
2019-05-02T01:29:46.597Z,10.37
2019-05-02T01:50:00.520Z,10.86
2019-05-02T02:10:02.159Z,10.31
2019-05-02T02:30:01.532Z,12.27
2019-05-02T02:50:10.880Z,10.33
2019-05-02T03:10:20.212Z,11.77
2019-05-02T03:30:31.652Z,11.87
2019-05-02T03:50:43.167Z,15.83
2019-05-02T04:10:42.568Z,15.26
2019-05-02T04:30:53.819Z,15.42
2019-05-02T04:51:09.969Z,15.96
2019-05-02T05:11:02.010Z,18.02
2019-05-02T05:31:11.419Z,17.31
2019-05-02T05:51:20.866Z,19.09
2019-05-02T06:11:41.309Z,16.37
2019-05-02T06:31:31.115Z,16.20
2019-05-02T06:51:42.006Z,14.32
2019-05-02T07:11:56.896Z,12.38
2019-05-02T07:31:58.564Z,13.34
2019-05-02T07:52:07.893Z,14.10
2019-05-02T08:12:20.453Z,14.41
2019-05-02T08:32:21.290Z,12.47
2019-05-02T08:52:31.928Z,11.27
2019-05-02T09:12:32.028Z,16.32
2019-05-02T09:32:41.905Z,16.83
2019-05-02T09:52:49.252Z,15.57
2019-05-02T10:12:58.699Z,14.83
2019-05-02T10:33:08.139Z,17.31
2019-05-02T10:53:17.741Z,15.35
2019-05-02T11:13:27.151Z,12.32
2019-05-02T11:33:36.711Z,10.94
2019-05-02T11:53:46.496Z,9.08
2019-05-02T12:13:57.065Z,15.80
2019-05-02T12:34:06.627Z,19.57
2019-05-02T12:54:16.755Z,18.25
2019-05-02T13:15:24.704Z,20.19
2019-05-02T13:35:24.238Z,21.55
2019-05-02T13:55:33.539Z,20.68
2019-05-02T14:15:42.838Z,14.34
2019-05-02T14:35:52.753Z,13.65
2019-05-02T14:56:05.992Z,17.05
2019-05-02T15:16:17.663Z,12.06
2019-05-02T15:36:12.869Z,10.50
2019-05-02T15:56:24.366Z,13.05
2019-05-02T16:16:36.497Z,11.00
2019-05-02T16:36:37.300Z,12.06
2019-05-02T16:56:42.311Z,9.14
2019-05-02T17:16:52.352Z,11.17
2019-05-02T17:37:03.458Z,8.90
2019-05-02T17:57:08.219Z,11.95
2019-05-02T18:17:16.266Z,13.09
2019-05-02T18:37:25.722Z,12.64
2019-05-02T18:57:35.356Z,13.60
2019-05-02T19:17:44.625Z,16.23
2019-05-02T19:37:55.137Z,14.73
2019-05-02T19:58:06.393Z,13.46
2019-05-02T20:18:06.337Z,13.29
2019-05-02T20:38:05.752Z,11.83
2019-05-02T20:58:15.316Z,13.44
2019-05-02T21:18:24.734Z,11.09
2019-05-02T21:38:34.098Z,11.67
2019-05-02T21:58:43.679Z,12.69
2019-05-02T22:18:53.103Z,12.22
2019-05-02T22:39:02.060Z,15.11
2019-05-02T22:59:09.984Z,13.15
2019-05-02T23:19:19.409Z,15.20
2019-05-02T23:39:29.637Z,16.90
2019-05-02T23:59:29.096Z,21.68
